sensor_id;sensor_type;location;lat;lon;timestamp;temperature;humidity
46758;DHT22;32509;47.750;-3.396;2022-07-29T00:00:08;20.60;99.90
46758;DHT22;32509;47.750;-3.396;2022-07-29T00:02:34;20.60;99.90
46758;DHT22;32509;47.750;-3.396;2022-07-29T00:05:00;20.60;99.90
46758;DHT22;32509;47.750;-3.396;2022-07-29T00:07:26;20.60;99.90
46758;DHT22;32509;47.750;-3.396;2022-07-29T00:09:51;20.60;99.90
46758;DHT22;32509;47.750;-3.396;2022-07-29T00:12:18;20.60;99.90
46758;DHT22;32509;47.750;-3.396;2022-07-29T00:14:44;20.60;99.90
46758;DHT22;32509;47.750;-3.396;2022-07-29T00:17:09;20.50;99.90
46758;DHT22;32509;47.750;-3.396;2022-07-29T00:19:38;20.50;99.90
46758;DHT22;32509;47.750;-3.396;2022-07-29T00:22:04;20.60;99.90
46758;DHT22;32509;47.750;-3.396;2022-07-29T00:24:30;20.50;99.90
46758;DHT22;32509;47.750;-3.396;2022-07-29T00:26:55;20.50;99.90
46758;DHT22;32509;47.750;-3.396;2022-07-29T00:29:21;20.50;99.90
46758;DHT22;32509;47.750;-3.396;2022-07-29T00:31:47;20.50;99.90
46758;DHT22;32509;47.750;-3.396;2022-07-29T00:34:13;20.50;99.90
46758;DHT22;32509;47.750;-3.396;2022-07-29T00:36:57;20.50;99.90
46758;DHT22;32509;47.750;-3.396;2022-07-29T00:39:23;20.50;99.90
46758;DHT22;32509;47.750;-3.396;2022-07-29T00:41:49;20.50;99.90
46758;DHT22;32509;47.750;-3.396;2022-07-29T00:44:15;20.40;99.90
46758;DHT22;32509;47.750;-3.396;2022-07-29T00:46:41;20.50;99.90
46758;DHT22;32509;47.750;-3.396;2022-07-29T00:49:10;20.50;99.90
46758;DHT22;32509;47.750;-3.396;2022-07-29T00:51:37;20.50;99.90
46758;DHT22;32509;47.750;-3.396;2022-07-29T00:54:04;20.50;99.90
46758;DHT22;32509;47.750;-3.396;2022-07-29T00:56:31;20.50;99.90
46758;DHT22;32509;47.750;-3.396;2022-07-29T00:58:57;20.50;99.90
46758;DHT22;32509;47.750;-3.396;2022-07-29T01:01:23;20.50;99.90
46758;DHT22;32509;47.750;-3.396;2022-07-29T01:03:49;20.50;99.90
46758;DHT22;32509;47.750;-3.396;2022-07-29T01:06:19;20.50;99.90
46758;DHT22;32509;47.750;-3.396;2022-07-29T01:08:46;20.50;99.90
46758;DHT22;32509;47.750;-3.396;2022-07-29T01:11:13;20.50;99.90
46758;DHT22;32509;47.750;-3.396;2022-07-29T01:13:46;20.40;99.90
46758;DHT22;32509;47.750;-3.396;2022-07-29T01:16:33;20.40;99.90
46758;DHT22;32509;47.750;-3.396;2022-07-29T01:19:12;20.40;99.90
46758;DHT22;32509;47.750;-3.396;2022-07-29T01:21:57;20.40;99.90
46758;DHT22;32509;47.750;-3.396;2022-07-29T01:24:46;20.40;99.90
46758;DHT22;32509;47.750;-3.396;2022-07-29T01:29:59;20.40;99.90
46758;DHT22;32509;47.750;-3.396;2022-07-29T01:32:29;20.30;99.90
46758;DHT22;32509;47.750;-3.396;2022-07-29T01:37:51;20.40;99.90
46758;DHT22;32509;47.750;-3.396;2022-07-29T01:40:25;20.30;99.90
46758;DHT22;32509;47.750;-3.396;2022-07-29T01:42:55;20.30;99.90
46758;DHT22;32509;47.750;-3.396;2022-07-29T01:45:30;20.30;99.90
46758;DHT22;32509;47.750;-3.396;2022-07-29T01:48:16;20.30;99.90
46758;DHT22;32509;47.750;-3.396;2022-07-29T01:50:51;20.30;99.90
46758;DHT22;32509;47.750;-3.396;2022-07-29T01:55:57;20.30;99.90
46758;DHT22;32509;47.750;-3.396;2022-07-29T01:58:26;20.30;99.90
46758;DHT22;32509;47.750;-3.396;2022-07-29T02:00:53;20.30;99.90
46758;DHT22;32509;47.750;-3.396;2022-07-29T02:03:21;20.30;99.90
46758;DHT22;32509;47.750;-3.396;2022-07-29T02:05:49;20.30;99.90
46758;DHT22;32509;47.750;-3.396;2022-07-29T02:08:16;20.20;99.90
46758;DHT22;32509;47.750;-3.396;2022-07-29T02:10:45;20.20;99.90
46758;DHT22;32509;47.750;-3.396;2022-07-29T02:13:13;20.20;99.90
46758;DHT22;32509;47.750;-3.396;2022-07-29T02:15:42;20.10;99.90
46758;DHT22;32509;47.750;-3.396;2022-07-29T02:18:14;20.00;99.90
46758;DHT22;32509;47.750;-3.396;2022-07-29T02:20:41;20.00;99.90
46758;DHT22;32509;47.750;-3.396;2022-07-29T02:23:10;20.00;99.90
46758;DHT22;32509;47.750;-3.396;2022-07-29T02:25:37;20.00;99.90
46758;DHT22;32509;47.750;-3.396;2022-07-29T02:28:05;20.00;99.90
46758;DHT22;32509;47.750;-3.396;2022-07-29T02:30:32;20.00;99.90
46758;DHT22;32509;47.750;-3.396;2022-07-29T02:32:58;20.00;99.90
46758;DHT22;32509;47.750;-3.396;2022-07-29T02:35:25;19.90;99.90
46758;DHT22;32509;47.750;-3.396;2022-07-29T02:37:52;19.90;99.90
46758;DHT22;32509;47.750;-3.396;2022-07-29T02:40:38;19.90;99.90
46758;DHT22;32509;47.750;-3.396;2022-07-29T02:43:06;19.90;99.90
46758;DHT22;32509;47.750;-3.396;2022-07-29T02:45:33;19.80;99.90
46758;DHT22;32509;47.750;-3.396;2022-07-29T02:48:08;19.80;99.90
46758;DHT22;32509;47.750;-3.396;2022-07-29T02:50:45;19.80;99.90
46758;DHT22;32509;47.750;-3.396;2022-07-29T02:53:23;19.70;99.90
46758;DHT22;32509;47.750;-3.396;2022-07-29T02:56:04;19.70;99.90
46758;DHT22;32509;47.750;-3.396;2022-07-29T02:58:39;19.70;99.90
46758;DHT22;32509;47.750;-3.396;2022-07-29T03:01:16;19.70;99.90
46758;DHT22;32509;47.750;-3.396;2022-07-29T03:03:44;19.70;99.90
46758;DHT22;32509;47.750;-3.396;2022-07-29T03:06:13;19.70;99.90
46758;DHT22;32509;47.750;-3.396;2022-07-29T03:08:40;19.70;99.90
46758;DHT22;32509;47.750;-3.396;2022-07-29T03:11:08;19.60;99.90
46758;DHT22;32509;47.750;-3.396;2022-07-29T03:13:35;19.70;99.90
46758;DHT22;32509;47.750;-3.396;2022-07-29T03:16:01;19.70;99.90
46758;DHT22;32509;47.750;-3.396;2022-07-29T03:18:27;19.70;99.90
46758;DHT22;32509;47.750;-3.396;2022-07-29T03:20:53;19.70;99.90
46758;DHT22;32509;47.750;-3.396;2022-07-29T03:23:20;19.70;99.90
46758;DHT22;32509;47.750;-3.396;2022-07-29T03:25:49;19.70;99.90
46758;DHT22;32509;47.750;-3.396;2022-07-29T03:28:15;19.70;99.90
46758;DHT22;32509;47.750;-3.396;2022-07-29T03:30:40;19.70;99.90
46758;DHT22;32509;47.750;-3.396;2022-07-29T03:33:06;19.70;99.90
46758;DHT22;32509;47.750;-3.396;2022-07-29T03:35:32;19.70;99.90
46758;DHT22;32509;47.750;-3.396;2022-07-29T03:37:58;19.70;99.90
46758;DHT22;32509;47.750;-3.396;2022-07-29T03:40:31;19.70;99.90
46758;DHT22;32509;47.750;-3.396;2022-07-29T03:42:59;19.70;99.90
46758;DHT22;32509;47.750;-3.396;2022-07-29T03:45:26;19.60;99.90
46758;DHT22;32509;47.750;-3.396;2022-07-29T03:47:59;19.70;99.90
46758;DHT22;32509;47.750;-3.396;2022-07-29T03:50:27;19.70;99.90
46758;DHT22;32509;47.750;-3.396;2022-07-29T03:52:54;19.60;99.90
46758;DHT22;32509;47.750;-3.396;2022-07-29T03:55:20;19.60;99.90
46758;DHT22;32509;47.750;-3.396;2022-07-29T03:57:46;19.60;99.90
46758;DHT22;32509;47.750;-3.396;2022-07-29T04:00:14;19.60;99.90
46758;DHT22;32509;47.750;-3.396;2022-07-29T04:02:43;19.60;99.90
46758;DHT22;32509;47.750;-3.396;2022-07-29T04:05:14;19.60;99.90
46758;DHT22;32509;47.750;-3.396;2022-07-29T04:07:44;19.60;99.90
46758;DHT22;32509;47.750;-3.396;2022-07-29T04:10:10;19.60;99.90
46758;DHT22;32509;47.750;-3.396;2022-07-29T04:12:36;19.60;99.90
46758;DHT22;32509;47.750;-3.396;2022-07-29T04:15:05;19.60;99.90
46758;DHT22;32509;47.750;-3.396;2022-07-29T04:17:31;19.50;99.90
46758;DHT22;32509;47.750;-3.396;2022-07-29T04:19:57;19.50;99.90
46758;DHT22;32509;47.750;-3.396;2022-07-29T04:22:23;19.50;99.90
46758;DHT22;32509;47.750;-3.396;2022-07-29T04:24:49;19.50;99.90
46758;DHT22;32509;47.750;-3.396;2022-07-29T04:27:14;19.50;99.90
46758;DHT22;32509;47.750;-3.396;2022-07-29T04:29:40;19.40;99.90
46758;DHT22;32509;47.750;-3.396;2022-07-29T04:32:06;19.40;99.90
46758;DHT22;32509;47.750;-3.396;2022-07-29T04:34:32;19.40;99.90
46758;DHT22;32509;47.750;-3.396;2022-07-29T04:36:58;19.40;99.90
46758;DHT22;32509;47.750;-3.396;2022-07-29T04:39:24;19.40;99.90
46758;DHT22;32509;47.750;-3.396;2022-07-29T04:41:50;19.40;99.90
46758;DHT22;32509;47.750;-3.396;2022-07-29T04:44:16;19.30;99.90
46758;DHT22;32509;47.750;-3.396;2022-07-29T04:46:42;19.30;99.90
46758;DHT22;32509;47.750;-3.396;2022-07-29T04:49:07;19.30;99.90
46758;DHT22;32509;47.750;-3.396;2022-07-29T04:51:33;19.30;99.90
46758;DHT22;32509;47.750;-3.396;2022-07-29T04:53:59;19.30;99.90
46758;DHT22;32509;47.750;-3.396;2022-07-29T04:56:25;19.30;99.90
46758;DHT22;32509;47.750;-3.396;2022-07-29T04:58:51;19.30;99.90
46758;DHT22;32509;47.750;-3.396;2022-07-29T05:01:17;19.40;99.90
46758;DHT22;32509;47.750;-3.396;2022-07-29T05:03:42;19.30;99.90
46758;DHT22;32509;47.750;-3.396;2022-07-29T05:06:08;19.40;99.90
46758;DHT22;32509;47.750;-3.396;2022-07-29T05:08:37;19.40;99.90
46758;DHT22;32509;47.750;-3.396;2022-07-29T05:11:03;19.40;99.90
46758;DHT22;32509;47.750;-3.396;2022-07-29T05:13:29;19.40;99.90
46758;DHT22;32509;47.750;-3.396;2022-07-29T05:15:55;19.40;99.90
46758;DHT22;32509;47.750;-3.396;2022-07-29T05:18:21;19.50;99.90
46758;DHT22;32509;47.750;-3.396;2022-07-29T05:20:47;19.40;99.90
46758;DHT22;32509;47.750;-3.396;2022-07-29T05:23:12;19.40;99.90
46758;DHT22;32509;47.750;-3.396;2022-07-29T05:25:38;19.40;99.90
46758;DHT22;32509;47.750;-3.396;2022-07-29T05:28:04;19.40;99.90
46758;DHT22;32509;47.750;-3.396;2022-07-29T05:30:30;19.40;99.90
46758;DHT22;32509;47.750;-3.396;2022-07-29T05:32:56;19.50;99.90
46758;DHT22;32509;47.750;-3.396;2022-07-29T05:35:21;19.40;99.90
46758;DHT22;32509;47.750;-3.396;2022-07-29T05:37:47;19.40;99.90
46758;DHT22;32509;47.750;-3.396;2022-07-29T05:40:13;19.50;99.90
46758;DHT22;32509;47.750;-3.396;2022-07-29T05:42:39;19.50;99.90
46758;DHT22;32509;47.750;-3.396;2022-07-29T05:45:05;19.50;99.90
46758;DHT22;32509;47.750;-3.396;2022-07-29T05:47:32;19.60;99.90
46758;DHT22;32509;47.750;-3.396;2022-07-29T05:50:00;19.60;99.90
46758;DHT22;32509;47.750;-3.396;2022-07-29T05:52:26;19.60;99.90
46758;DHT22;32509;47.750;-3.396;2022-07-29T05:54:52;19.60;99.90
46758;DHT22;32509;47.750;-3.396;2022-07-29T05:57:19;19.60;99.90
46758;DHT22;32509;47.750;-3.396;2022-07-29T05:59:45;19.70;99.90
46758;DHT22;32509;47.750;-3.396;2022-07-29T06:02:11;19.70;99.90
46758;DHT22;32509;47.750;-3.396;2022-07-29T06:04:37;19.70;99.90
46758;DHT22;32509;47.750;-3.396;2022-07-29T06:07:03;19.70;99.90
46758;DHT22;32509;47.750;-3.396;2022-07-29T06:09:29;19.80;99.90
46758;DHT22;32509;47.750;-3.396;2022-07-29T06:11:55;19.70;99.90
46758;DHT22;32509;47.750;-3.396;2022-07-29T06:14:21;19.80;99.90
46758;DHT22;32509;47.750;-3.396;2022-07-29T06:16:46;19.70;99.90
46758;DHT22;32509;47.750;-3.396;2022-07-29T06:19:12;19.70;99.90
46758;DHT22;32509;47.750;-3.396;2022-07-29T06:21:42;19.70;99.90
46758;DHT22;32509;47.750;-3.396;2022-07-29T06:24:10;19.70;99.90
46758;DHT22;32509;47.750;-3.396;2022-07-29T06:26:36;19.70;99.90
46758;DHT22;32509;47.750;-3.396;2022-07-29T06:29:01;19.70;99.90
46758;DHT22;32509;47.750;-3.396;2022-07-29T06:31:27;19.70;99.90
46758;DHT22;32509;47.750;-3.396;2022-07-29T06:33:53;19.70;99.90
46758;DHT22;32509;47.750;-3.396;2022-07-29T06:36:19;19.70;99.90
46758;DHT22;32509;47.750;-3.396;2022-07-29T06:38:44;19.80;99.90
46758;DHT22;32509;47.750;-3.396;2022-07-29T06:41:10;19.80;99.90
46758;DHT22;32509;47.750;-3.396;2022-07-29T06:43:42;19.80;99.90
46758;DHT22;32509;47.750;-3.396;2022-07-29T06:46:15;19.90;99.90
46758;DHT22;32509;47.750;-3.396;2022-07-29T06:48:43;19.80;99.90
46758;DHT22;32509;47.750;-3.396;2022-07-29T06:51:09;19.90;99.90
46758;DHT22;32509;47.750;-3.396;2022-07-29T06:53:36;19.90;99.90
46758;DHT22;32509;47.750;-3.396;2022-07-29T06:56:03;19.90;99.90
46758;DHT22;32509;47.750;-3.396;2022-07-29T06:58:29;19.90;99.90
46758;DHT22;32509;47.750;-3.396;2022-07-29T07:00:56;19.90;99.90
46758;DHT22;32509;47.750;-3.396;2022-07-29T07:03:22;19.90;99.90
46758;DHT22;32509;47.750;-3.396;2022-07-29T07:05:49;20.00;99.90
46758;DHT22;32509;47.750;-3.396;2022-07-29T07:08:14;20.00;99.90
46758;DHT22;32509;47.750;-3.396;2022-07-29T07:10:41;20.00;99.90
46758;DHT22;32509;47.750;-3.396;2022-07-29T07:13:07;20.00;99.90
46758;DHT22;32509;47.750;-3.396;2022-07-29T07:15:33;20.00;99.90
46758;DHT22;32509;47.750;-3.396;2022-07-29T07:18:00;20.10;99.90
46758;DHT22;32509;47.750;-3.396;2022-07-29T07:20:26;20.10;99.90
46758;DHT22;32509;47.750;-3.396;2022-07-29T07:22:52;20.10;99.90
46758;DHT22;32509;47.750;-3.396;2022-07-29T07:25:17;20.10;99.90
46758;DHT22;32509;47.750;-3.396;2022-07-29T07:27:46;20.10;99.90
46758;DHT22;32509;47.750;-3.396;2022-07-29T07:30:12;20.10;99.90
46758;DHT22;32509;47.750;-3.396;2022-07-29T07:32:38;20.10;99.90
46758;DHT22;32509;47.750;-3.396;2022-07-29T07:35:06;20.20;99.90
46758;DHT22;32509;47.750;-3.396;2022-07-29T07:40:54;20.20;99.90
46758;DHT22;32509;47.750;-3.396;2022-07-29T07:43:20;20.20;99.90
46758;DHT22;32509;47.750;-3.396;2022-07-29T07:45:47;20.20;99.90
46758;DHT22;32509;47.750;-3.396;2022-07-29T07:48:15;20.20;99.90
46758;DHT22;32509;47.750;-3.396;2022-07-29T07:50:41;20.20;99.90
46758;DHT22;32509;47.750;-3.396;2022-07-29T07:53:07;20.20;99.90
46758;DHT22;32509;47.750;-3.396;2022-07-29T07:55:32;20.20;99.90
46758;DHT22;32509;47.750;-3.396;2022-07-29T07:57:58;20.30;99.90
46758;DHT22;32509;47.750;-3.396;2022-07-29T08:00:24;20.30;99.90
46758;DHT22;32509;47.750;-3.396;2022-07-29T08:02:50;20.40;99.90
46758;DHT22;32509;47.750;-3.396;2022-07-29T08:05:16;20.40;99.90
46758;DHT22;32509;47.750;-3.396;2022-07-29T08:07:46;20.40;99.90
46758;DHT22;32509;47.750;-3.396;2022-07-29T08:10:16;20.40;99.90
46758;DHT22;32509;47.750;-3.396;2022-07-29T08:13:03;20.50;99.90
46758;DHT22;32509;47.750;-3.396;2022-07-29T08:15:29;20.50;99.90
46758;DHT22;32509;47.750;-3.396;2022-07-29T08:17:55;20.60;99.90
46758;DHT22;32509;47.750;-3.396;2022-07-29T08:20:21;20.60;99.90
46758;DHT22;32509;47.750;-3.396;2022-07-29T08:22:46;20.60;99.90
46758;DHT22;32509;47.750;-3.396;2022-07-29T08:25:12;20.70;99.90
46758;DHT22;32509;47.750;-3.396;2022-07-29T08:27:38;20.70;99.90
46758;DHT22;32509;47.750;-3.396;2022-07-29T08:30:04;20.70;99.90
46758;DHT22;32509;47.750;-3.396;2022-07-29T08:32:30;20.60;99.90
46758;DHT22;32509;47.750;-3.396;2022-07-29T08:34:56;20.70;99.90
46758;DHT22;32509;47.750;-3.396;2022-07-29T08:37:22;20.70;99.90
46758;DHT22;32509;47.750;-3.396;2022-07-29T08:39:48;20.80;99.90
46758;DHT22;32509;47.750;-3.396;2022-07-29T08:42:14;20.80;99.90
46758;DHT22;32509;47.750;-3.396;2022-07-29T08:44:42;20.90;99.90
46758;DHT22;32509;47.750;-3.396;2022-07-29T08:47:08;20.90;99.90
46758;DHT22;32509;47.750;-3.396;2022-07-29T08:49:34;20.90;99.90
46758;DHT22;32509;47.750;-3.396;2022-07-29T08:52:01;20.80;99.90
46758;DHT22;32509;47.750;-3.396;2022-07-29T08:54:27;20.90;99.90
46758;DHT22;32509;47.750;-3.396;2022-07-29T08:56:53;20.90;99.90
46758;DHT22;32509;47.750;-3.396;2022-07-29T08:59:22;20.90;99.90
46758;DHT22;32509;47.750;-3.396;2022-07-29T09:01:52;21.00;99.90
46758;DHT22;32509;47.750;-3.396;2022-07-29T09:04:19;21.10;99.90
46758;DHT22;32509;47.750;-3.396;2022-07-29T09:06:47;21.10;99.90
46758;DHT22;32509;47.750;-3.396;2022-07-29T09:09:15;21.20;99.90
46758;DHT22;32509;47.750;-3.396;2022-07-29T09:11:41;21.20;99.90
46758;DHT22;32509;47.750;-3.396;2022-07-29T09:14:08;21.40;99.90
46758;DHT22;32509;47.750;-3.396;2022-07-29T09:16:50;21.30;99.90
46758;DHT22;32509;47.750;-3.396;2022-07-29T09:19:31;21.50;99.90
46758;DHT22;32509;47.750;-3.396;2022-07-29T09:22:00;21.70;99.90
46758;DHT22;32509;47.750;-3.396;2022-07-29T09:24:41;21.80;99.90
46758;DHT22;32509;47.750;-3.396;2022-07-29T09:27:20;21.80;99.90
46758;DHT22;32509;47.750;-3.396;2022-07-29T09:29:46;22.00;99.90
46758;DHT22;32509;47.750;-3.396;2022-07-29T09:32:12;22.00;99.90
46758;DHT22;32509;47.750;-3.396;2022-07-29T09:34:38;22.10;99.90
46758;DHT22;32509;47.750;-3.396;2022-07-29T09:37:05;22.20;99.90
46758;DHT22;32509;47.750;-3.396;2022-07-29T09:39:39;22.20;99.90
46758;DHT22;32509;47.750;-3.396;2022-07-29T09:42:11;22.30;99.90
46758;DHT22;32509;47.750;-3.396;2022-07-29T09:44:45;22.30;99.90
46758;DHT22;32509;47.750;-3.396;2022-07-29T09:47:12;22.10;99.90
46758;DHT22;32509;47.750;-3.396;2022-07-29T09:49:58;22.00;99.90
46758;DHT22;32509;47.750;-3.396;2022-07-29T09:52:26;22.10;99.90
46758;DHT22;32509;47.750;-3.396;2022-07-29T09:54:52;22.20;99.90
46758;DHT22;32509;47.750;-3.396;2022-07-29T09:57:28;22.10;99.90
46758;DHT22;32509;47.750;-3.396;2022-07-29T10:00:02;22.10;99.90
46758;DHT22;32509;47.750;-3.396;2022-07-29T10:02:33;22.20;99.90
46758;DHT22;32509;47.750;-3.396;2022-07-29T10:05:00;22.20;99.90
46758;DHT22;32509;47.750;-3.396;2022-07-29T10:10:09;22.30;99.90
46758;DHT22;32509;47.750;-3.396;2022-07-29T10:12:57;22.50;99.80
46758;DHT22;32509;47.750;-3.396;2022-07-29T10:15:25;22.50;99.70
46758;DHT22;32509;47.750;-3.396;2022-07-29T10:17:54;22.60;99.90
46758;DHT22;32509;47.750;-3.396;2022-07-29T10:20:24;22.70;99.50
46758;DHT22;32509;47.750;-3.396;2022-07-29T10:22:51;22.80;98.90
46758;DHT22;32509;47.750;-3.396;2022-07-29T10:25:18;22.80;99.60
46758;DHT22;32509;47.750;-3.396;2022-07-29T10:27:45;22.70;99.90
46758;DHT22;32509;47.750;-3.396;2022-07-29T10:30:12;22.60;99.90
46758;DHT22;32509;47.750;-3.396;2022-07-29T10:41:30;23.20;98.80
46758;DHT22;32509;47.750;-3.396;2022-07-29T10:46:37;22.80;99.90
46758;DHT22;32509;47.750;-3.396;2022-07-29T10:49:11;22.90;99.50
46758;DHT22;32509;47.750;-3.396;2022-07-29T10:54:17;23.30;98.20
46758;DHT22;32509;47.750;-3.396;2022-07-29T10:56:42;23.10;99.50
46758;DHT22;32509;47.750;-3.396;2022-07-29T11:01:47;23.10;98.90
46758;DHT22;32509;47.750;-3.396;2022-07-29T11:04:15;23.20;98.80
46758;DHT22;32509;47.750;-3.396;2022-07-29T11:09:29;23.10;98.80
46758;DHT22;32509;47.750;-3.396;2022-07-29T11:11:58;23.40;98.40
46758;DHT22;32509;47.750;-3.396;2022-07-29T11:15:09;23.40;98.90
46758;DHT22;32509;47.750;-3.396;2022-07-29T11:20:54;23.30;98.60
46758;DHT22;32509;47.750;-3.396;2022-07-29T11:26:24;23.30;97.90
46758;DHT22;32509;47.750;-3.396;2022-07-29T11:29:05;23.30;97.50
46758;DHT22;32509;47.750;-3.396;2022-07-29T11:34:20;23.50;98.60
46758;DHT22;32509;47.750;-3.396;2022-07-29T11:39:30;23.90;99.90
46758;DHT22;32509;47.750;-3.396;2022-07-29T11:44:56;23.70;99.80
46758;DHT22;32509;47.750;-3.396;2022-07-29T11:47:24;23.50;99.30
46758;DHT22;32509;47.750;-3.396;2022-07-29T11:49:50;23.90;99.90
46758;DHT22;32509;47.750;-3.396;2022-07-29T11:52:17;24.20;99.90
46758;DHT22;32509;47.750;-3.396;2022-07-29T11:54:44;24.10;99.40
46758;DHT22;32509;47.750;-3.396;2022-07-29T11:57:12;23.80;99.30
46758;DHT22;32509;47.750;-3.396;2022-07-29T11:59:43;24.10;99.90
46758;DHT22;32509;47.750;-3.396;2022-07-29T12:02:09;24.30;99.90
46758;DHT22;32509;47.750;-3.396;2022-07-29T12:04:49;24.40;99.90
46758;DHT22;32509;47.750;-3.396;2022-07-29T12:07:15;24.20;99.50
46758;DHT22;32509;47.750;-3.396;2022-07-29T12:09:52;24.40;99.70
46758;DHT22;32509;47.750;-3.396;2022-07-29T12:12:18;24.50;99.50
46758;DHT22;32509;47.750;-3.396;2022-07-29T12:14:45;24.50;99.20
46758;DHT22;32509;47.750;-3.396;2022-07-29T12:17:30;24.70;99.00
46758;DHT22;32509;47.750;-3.396;2022-07-29T12:19:58;24.70;98.90
46758;DHT22;32509;47.750;-3.396;2022-07-29T12:22:30;24.50;99.20
46758;DHT22;32509;47.750;-3.396;2022-07-29T12:25:02;24.70;98.80
46758;DHT22;32509;47.750;-3.396;2022-07-29T12:27:28;24.50;98.80
46758;DHT22;32509;47.750;-3.396;2022-07-29T12:30:02;24.40;98.80
46758;DHT22;32509;47.750;-3.396;2022-07-29T12:32:36;24.20;98.70
46758;DHT22;32509;47.750;-3.396;2022-07-29T12:35:14;24.30;98.90
46758;DHT22;32509;47.750;-3.396;2022-07-29T12:37:42;24.30;98.90
46758;DHT22;32509;47.750;-3.396;2022-07-29T12:40:09;24.30;98.60
46758;DHT22;32509;47.750;-3.396;2022-07-29T12:42:36;24.30;98.80
46758;DHT22;32509;47.750;-3.396;2022-07-29T12:45:03;23.90;98.50
46758;DHT22;32509;47.750;-3.396;2022-07-29T12:47:29;24.10;98.90
46758;DHT22;32509;47.750;-3.396;2022-07-29T12:50:12;24.20;98.70
46758;DHT22;32509;47.750;-3.396;2022-07-29T12:52:41;24.20;98.10
46758;DHT22;32509;47.750;-3.396;2022-07-29T12:55:06;24.20;98.30
46758;DHT22;32509;47.750;-3.396;2022-07-29T12:57:44;24.10;97.60
46758;DHT22;32509;47.750;-3.396;2022-07-29T13:00:12;24.30;98.00
46758;DHT22;32509;47.750;-3.396;2022-07-29T13:02:41;24.20;97.70
46758;DHT22;32509;47.750;-3.396;2022-07-29T13:05:08;24.30;98.10
46758;DHT22;32509;47.750;-3.396;2022-07-29T13:07:35;24.20;98.30
46758;DHT22;32509;47.750;-3.396;2022-07-29T13:10:14;24.40;98.10
46758;DHT22;32509;47.750;-3.396;2022-07-29T13:15:33;24.30;98.30
46758;DHT22;32509;47.750;-3.396;2022-07-29T13:17:59;24.30;98.70
46758;DHT22;32509;47.750;-3.396;2022-07-29T13:20:27;24.40;98.20
46758;DHT22;32509;47.750;-3.396;2022-07-29T13:22:56;24.40;97.80
46758;DHT22;32509;47.750;-3.396;2022-07-29T13:25:26;24.50;97.60
46758;DHT22;32509;47.750;-3.396;2022-07-29T13:27:53;24.50;97.90
46758;DHT22;32509;47.750;-3.396;2022-07-29T13:30:20;24.40;97.50
46758;DHT22;32509;47.750;-3.396;2022-07-29T13:32:47;24.60;97.80
46758;DHT22;32509;47.750;-3.396;2022-07-29T13:35:12;24.50;98.00
46758;DHT22;32509;47.750;-3.396;2022-07-29T13:37:39;24.60;98.20
46758;DHT22;32509;47.750;-3.396;2022-07-29T13:40:06;24.60;98.30
46758;DHT22;32509;47.750;-3.396;2022-07-29T13:42:33;24.50;98.20
46758;DHT22;32509;47.750;-3.396;2022-07-29T13:44:59;24.50;98.50
46758;DHT22;32509;47.750;-3.396;2022-07-29T13:47:25;24.50;98.60
46758;DHT22;32509;47.750;-3.396;2022-07-29T13:49:51;24.50;98.70
46758;DHT22;32509;47.750;-3.396;2022-07-29T13:52:18;24.40;98.30
46758;DHT22;32509;47.750;-3.396;2022-07-29T13:54:44;24.40;98.80
46758;DHT22;32509;47.750;-3.396;2022-07-29T13:57:11;24.50;98.80
46758;DHT22;32509;47.750;-3.396;2022-07-29T13:59:38;24.40;98.90
46758;DHT22;32509;47.750;-3.396;2022-07-29T14:02:04;24.50;99.00
46758;DHT22;32509;47.750;-3.396;2022-07-29T14:04:31;24.40;98.60
46758;DHT22;32509;47.750;-3.396;2022-07-29T14:06:57;24.40;98.60
46758;DHT22;32509;47.750;-3.396;2022-07-29T14:09:22;24.30;98.90
46758;DHT22;32509;47.750;-3.396;2022-07-29T14:11:48;24.30;98.20
46758;DHT22;32509;47.750;-3.396;2022-07-29T14:14:16;24.30;98.30
46758;DHT22;32509;47.750;-3.396;2022-07-29T14:16:42;24.20;98.20
46758;DHT22;32509;47.750;-3.396;2022-07-29T14:19:07;24.20;98.40
46758;DHT22;32509;47.750;-3.396;2022-07-29T14:21:33;24.20;98.50
46758;DHT22;32509;47.750;-3.396;2022-07-29T14:24:00;24.20;98.30
46758;DHT22;32509;47.750;-3.396;2022-07-29T14:26:29;24.30;98.70
46758;DHT22;32509;47.750;-3.396;2022-07-29T14:28:54;24.20;98.30
46758;DHT22;32509;47.750;-3.396;2022-07-29T14:31:20;24.40;98.50
46758;DHT22;32509;47.750;-3.396;2022-07-29T14:33:46;24.40;98.50
46758;DHT22;32509;47.750;-3.396;2022-07-29T14:36:12;24.40;98.60
46758;DHT22;32509;47.750;-3.396;2022-07-29T14:38:37;24.40;98.50
46758;DHT22;32509;47.750;-3.396;2022-07-29T14:41:04;24.50;98.60
46758;DHT22;32509;47.750;-3.396;2022-07-29T14:43:30;24.50;98.60
46758;DHT22;32509;47.750;-3.396;2022-07-29T14:45:56;24.50;98.60
46758;DHT22;32509;47.750;-3.396;2022-07-29T14:48:21;24.60;99.00
46758;DHT22;32509;47.750;-3.396;2022-07-29T14:50:47;24.50;98.80
46758;DHT22;32509;47.750;-3.396;2022-07-29T14:53:13;24.40;98.00
46758;DHT22;32509;47.750;-3.396;2022-07-29T14:55:39;24.50;98.40
46758;DHT22;32509;47.750;-3.396;2022-07-29T14:58:05;24.40;98.40
46758;DHT22;32509;47.750;-3.396;2022-07-29T15:00:31;24.40;98.10
46758;DHT22;32509;47.750;-3.396;2022-07-29T15:03:00;24.40;97.80
46758;DHT22;32509;47.750;-3.396;2022-07-29T15:05:26;24.40;98.10
46758;DHT22;32509;47.750;-3.396;2022-07-29T15:07:52;24.40;98.50
46758;DHT22;32509;47.750;-3.396;2022-07-29T15:10:18;24.40;98.20
46758;DHT22;32509;47.750;-3.396;2022-07-29T15:12:44;24.40;98.60
46758;DHT22;32509;47.750;-3.396;2022-07-29T15:15:10;24.50;98.10
46758;DHT22;32509;47.750;-3.396;2022-07-29T15:17:36;24.50;98.00
46758;DHT22;32509;47.750;-3.396;2022-07-29T15:20:02;24.50;98.20
46758;DHT22;32509;47.750;-3.396;2022-07-29T15:22:28;24.60;98.00
46758;DHT22;32509;47.750;-3.396;2022-07-29T15:24:54;24.50;98.10
46758;DHT22;32509;47.750;-3.396;2022-07-29T15:27:19;24.40;98.10
46758;DHT22;32509;47.750;-3.396;2022-07-29T15:29:45;24.40;98.30
46758;DHT22;32509;47.750;-3.396;2022-07-29T15:32:11;24.50;98.40
46758;DHT22;32509;47.750;-3.396;2022-07-29T15:34:37;24.50;98.10
46758;DHT22;32509;47.750;-3.396;2022-07-29T15:37:04;24.50;97.80
46758;DHT22;32509;47.750;-3.396;2022-07-29T15:39:30;24.60;98.10
46758;DHT22;32509;47.750;-3.396;2022-07-29T15:41:56;24.50;98.00
46758;DHT22;32509;47.750;-3.396;2022-07-29T15:44:22;24.40;98.00
46758;DHT22;32509;47.750;-3.396;2022-07-29T15:46:48;24.40;98.20
46758;DHT22;32509;47.750;-3.396;2022-07-29T15:49:32;24.50;97.90
46758;DHT22;32509;47.750;-3.396;2022-07-29T15:51:59;24.50;97.80
46758;DHT22;32509;47.750;-3.396;2022-07-29T15:54:26;24.50;97.30
46758;DHT22;32509;47.750;-3.396;2022-07-29T15:56:52;24.30;97.50
46758;DHT22;32509;47.750;-3.396;2022-07-29T15:59:19;24.40;97.50
46758;DHT22;32509;47.750;-3.396;2022-07-29T16:01:45;24.30;97.90
46758;DHT22;32509;47.750;-3.396;2022-07-29T16:04:10;24.20;97.90
46758;DHT22;32509;47.750;-3.396;2022-07-29T16:06:36;24.10;97.60
46758;DHT22;32509;47.750;-3.396;2022-07-29T16:09:02;24.10;98.00
46758;DHT22;32509;47.750;-3.396;2022-07-29T16:11:28;24.00;98.00